createdAt,value
2024-04-12T06:03:34.474Z,75.24
2024-04-12T06:06:02.837Z,74.47
2024-04-12T06:08:29.305Z,74.26
2024-04-12T06:10:55.807Z,74.26
2024-04-12T06:13:22.487Z,74.08
2024-04-12T06:15:49.792Z,74.33
2024-04-12T06:18:16.539Z,74.28
2024-04-12T06:20:43.247Z,73.95
2024-04-12T06:23:09.909Z,73.85
2024-04-12T06:25:37.204Z,74.11
2024-04-12T06:28:05.814Z,73.81
2024-04-12T06:30:32.499Z,73.73
2024-04-12T06:32:59.211Z,73.69
2024-04-12T06:35:25.880Z,73.38
2024-04-12T06:37:54.575Z,73.30
2024-04-12T06:40:21.603Z,72.87
2024-04-12T06:42:49.809Z,72.73
2024-04-12T06:45:16.275Z,72.72
2024-04-12T06:47:43.302Z,72.78
2024-04-12T06:50:10.044Z,73.01
2024-04-12T06:52:36.702Z,73.64
2024-04-12T06:55:03.702Z,73.55
2024-04-12T06:57:30.595Z,73.58
2024-04-12T06:59:57.562Z,73.28
2024-04-12T07:02:24.599Z,73.61
2024-04-12T07:04:55.216Z,73.28
2024-04-12T07:07:23.058Z,73.56
2024-04-12T07:09:54.285Z,73.44
2024-04-12T07:12:23.588Z,72.87
2024-04-12T07:14:51.506Z,72.65
2024-04-12T07:17:18.429Z,71.56
2024-04-12T07:19:45.597Z,71.46
2024-04-12T07:22:12.048Z,70.40
2024-04-12T07:24:38.825Z,70.13
2024-04-12T07:27:06.171Z,70.55
2024-04-12T07:29:32.858Z,70.73
2024-04-12T07:31:59.563Z,69.87
2024-04-12T07:34:26.513Z,68.54
2024-04-12T07:36:53.101Z,68.69
2024-04-12T07:39:19.649Z,66.73
2024-04-12T07:41:46.652Z,67.62
2024-04-12T07:44:13.476Z,67.07
2024-04-12T07:46:40.714Z,65.57
2024-04-12T07:49:07.497Z,65.57
2024-04-12T07:51:34.567Z,65.91
2024-04-12T07:54:01.062Z,62.96
2024-04-12T07:56:27.619Z,63.81
2024-04-12T07:58:54.091Z,64.37
2024-04-12T08:01:21.361Z,64.03
2024-04-12T08:03:49.087Z,63.34
2024-04-12T08:06:15.688Z,64.20
2024-04-12T08:08:42.174Z,63.38
2024-04-12T08:11:08.719Z,61.64
2024-04-12T08:13:35.188Z,58.71
2024-04-12T08:16:01.777Z,61.03
2024-04-12T08:18:28.577Z,59.19
2024-04-12T08:20:55.265Z,58.71
2024-04-12T08:23:22.072Z,60.10
2024-04-12T08:25:48.606Z,58.26
2024-04-12T08:28:15.898Z,56.65
2024-04-12T08:30:42.383Z,53.12
2024-04-12T08:33:09.178Z,53.18
2024-04-12T08:35:37.586Z,50.32
2024-04-12T08:38:06.172Z,51.34
2024-04-12T08:40:33.397Z,50.85
2024-04-12T08:43:02.520Z,53.82
2024-04-12T08:45:30.548Z,50.95
2024-04-12T08:47:59.467Z,50.68
2024-04-12T08:50:27.357Z,50.92
2024-04-12T08:52:54.291Z,51.19
2024-04-12T08:55:22.681Z,49.25
2024-04-12T08:57:49.470Z,48.35
2024-04-12T09:00:17.091Z,48.54
2024-04-12T09:02:48.043Z,49.13
2024-04-12T09:05:17.693Z,49.10
2024-04-12T09:07:47.151Z,49.34
2024-04-12T09:10:13.651Z,46.49
2024-04-12T09:12:40.207Z,46.80
2024-04-12T09:15:07.205Z,49.25
2024-04-12T09:17:33.846Z,47.03
2024-04-12T09:20:00.570Z,48.38
2024-04-12T09:22:28.265Z,49.50
2024-04-12T09:24:54.917Z,47.72
2024-04-12T09:27:21.483Z,47.53
2024-04-12T09:29:51.890Z,46.85
2024-04-12T09:32:18.464Z,48.04
2024-04-12T09:34:45.215Z,45.48
2024-04-12T09:37:14.060Z,44.73
2024-04-12T09:39:41.159Z,46.39
2024-04-12T09:42:09.903Z,47.42
2024-04-12T09:44:38.308Z,46.91
2024-04-12T09:47:12.139Z,45.77
2024-04-12T09:49:40.340Z,46.12
2024-04-12T09:52:06.881Z,49.19
2024-04-12T09:54:33.621Z,48.82
2024-04-12T09:57:03.492Z,46.64
2024-04-12T09:59:30.931Z,47.32
2024-04-12T10:01:58.184Z,49.48
2024-04-12T10:04:25.538Z,48.55
2024-04-12T10:06:52.661Z,49.84
2024-04-12T10:09:20.481Z,45.25
2024-04-12T10:11:50.216Z,43.64
2024-04-12T10:14:20.222Z,43.30
2024-04-12T10:16:46.800Z,44.53
2024-04-12T10:19:13.868Z,45.08
2024-04-12T10:21:40.667Z,46.04
2024-04-12T10:24:07.756Z,42.78
2024-04-12T10:26:38.494Z,45.44
2024-04-12T10:29:05.446Z,43.96
2024-04-12T10:31:39.976Z,42.44
2024-04-12T10:34:08.140Z,44.83
2024-04-12T10:36:36.904Z,47.10
2024-04-12T10:39:03.737Z,45.24
2024-04-12T10:41:30.820Z,40.57
2024-04-12T10:43:58.037Z,39.92
2024-04-12T10:46:24.845Z,40.70
2024-04-12T10:48:51.901Z,40.43
2024-04-12T10:51:19.920Z,38.15
2024-04-12T10:53:47.039Z,37.43
2024-04-12T10:56:14.007Z,41.26
2024-04-12T10:58:43.642Z,40.40
2024-04-12T11:01:10.141Z,35.09
2024-04-12T11:03:36.932Z,35.96
2024-04-12T11:06:04.134Z,36.47
2024-04-12T11:08:30.929Z,36.27
2024-04-12T11:10:58.075Z,36.97
2024-04-12T11:13:24.750Z,33.59
2024-04-12T11:15:51.248Z,34.65
2024-04-12T11:18:18.087Z,34.50
2024-04-12T11:20:51.458Z,32.88
2024-04-12T11:23:18.238Z,36.01
2024-04-12T11:25:46.195Z,34.76
2024-04-12T11:28:12.947Z,32.61
2024-04-12T11:30:40.823Z,30.46
2024-04-12T11:33:07.543Z,32.18
2024-04-12T11:35:34.300Z,30.82
2024-04-12T11:38:01.181Z,31.26
2024-04-12T11:40:28.039Z,32.99
2024-04-12T11:42:54.597Z,30.91
2024-04-12T11:45:21.622Z,30.70
2024-04-12T11:47:48.312Z,31.25
2024-04-12T11:50:14.961Z,30.68
2024-04-12T11:52:41.754Z,30.30
2024-04-12T11:55:08.530Z,29.48
2024-04-12T11:57:35.162Z,30.53
2024-04-12T12:00:02.331Z,31.90
2024-04-12T12:02:39.895Z,30.65
2024-04-12T12:05:06.859Z,29.07
2024-04-12T12:07:33.394Z,28.58
2024-04-12T12:10:00.301Z,29.50
2024-04-12T12:12:27.131Z,30.10
2024-04-12T12:14:54.009Z,29.56
2024-04-12T12:17:21.127Z,29.47
2024-04-12T12:19:52.709Z,30.28
2024-04-12T12:22:20.344Z,30.48
2024-04-12T12:24:47.068Z,29.28
2024-04-12T12:27:14.000Z,27.53
2024-04-12T12:29:40.701Z,26.28
2024-04-12T12:32:07.821Z,26.28
2024-04-12T12:34:34.807Z,26.82
2024-04-12T12:37:01.919Z,27.88
2024-04-12T12:39:28.718Z,28.68
2024-04-12T12:41:55.978Z,26.41
2024-04-12T12:44:22.601Z,27.86
2024-04-12T12:46:49.787Z,27.74
2024-04-12T12:49:19.871Z,27.04
2024-04-12T12:51:46.324Z,24.97
2024-04-12T12:54:13.157Z,25.37
2024-04-12T12:56:40.515Z,23.52
2024-04-12T12:59:07.438Z,25.10
2024-04-12T13:01:37.081Z,24.21
2024-04-12T13:04:04.609Z,23.13
2024-04-12T13:06:35.291Z,22.72
2024-04-12T13:09:03.454Z,23.31
2024-04-12T13:11:31.398Z,24.70
2024-04-12T13:13:58.820Z,25.67
2024-04-12T13:16:28.093Z,27.29
2024-04-12T13:18:55.235Z,29.26
2024-04-12T13:21:22.577Z,30.37
2024-04-12T13:23:49.178Z,30.14
2024-04-12T13:26:16.145Z,29.40
2024-04-12T13:28:42.679Z,28.17
2024-04-12T13:31:09.404Z,27.38
2024-04-12T13:33:35.947Z,27.40
2024-04-12T13:36:02.984Z,27.73
2024-04-12T13:38:30.042Z,27.59
2024-04-12T13:40:56.490Z,25.62
2024-04-12T13:43:23.192Z,25.56
2024-04-12T13:45:50.104Z,26.53
2024-04-12T13:48:16.764Z,24.99
2024-04-12T13:50:43.762Z,24.25
2024-04-12T13:53:11.441Z,24.06
2024-04-12T13:55:38.330Z,24.94
2024-04-12T13:58:05.063Z,24.82
2024-04-12T14:00:32.397Z,24.30
2024-04-12T14:02:59.593Z,23.21
2024-04-12T14:05:26.638Z,23.12
2024-04-12T14:07:53.324Z,23.08
2024-04-12T14:10:20.026Z,23.29
2024-04-12T14:12:48.025Z,21.37
2024-04-12T14:15:21.626Z,21.71
2024-04-12T14:17:50.218Z,20.57
2024-04-12T14:20:16.867Z,21.10
2024-04-12T14:22:43.658Z,21.33
2024-04-12T14:25:10.463Z,21.07
2024-04-12T14:27:37.224Z,21.05
2024-04-12T14:30:04.145Z,21.18
2024-04-12T14:32:30.924Z,22.10
2024-04-12T14:35:06.165Z,21.25
2024-04-12T14:37:40.176Z,20.34
2024-04-12T14:40:07.462Z,20.40
2024-04-12T14:42:34.000Z,20.40
2024-04-12T14:45:00.630Z,21.23
2024-04-12T14:47:27.431Z,21.77
2024-04-12T14:49:56.797Z,23.27
2024-04-12T14:52:23.737Z,24.50
2024-04-12T14:54:50.148Z,26.66
2024-04-12T14:57:16.659Z,27.49
2024-04-12T14:59:43.334Z,29.35
2024-04-12T15:02:09.975Z,30.89
2024-04-12T15:04:36.567Z,32.53
2024-04-12T15:07:03.256Z,32.56
2024-04-12T15:09:31.998Z,34.99
2024-04-12T15:11:58.531Z,35.06
2024-04-12T15:14:25.099Z,35.37
2024-04-12T15:16:51.650Z,34.88
2024-04-12T15:19:18.108Z,35.35
2024-04-12T15:21:44.683Z,34.58
2024-04-12T15:24:11.476Z,32.02
2024-04-12T15:26:39.386Z,31.15
2024-04-12T15:29:06.293Z,29.13
2024-04-12T15:31:32.902Z,27.71
2024-04-12T15:33:59.858Z,27.63
2024-04-12T15:36:27.525Z,26.71
2024-04-12T15:38:55.007Z,26.55
2024-04-12T15:41:21.554Z,26.22
2024-04-12T15:43:48.699Z,25.05
2024-04-12T15:46:15.528Z,24.26
2024-04-12T15:48:42.104Z,23.92
2024-04-12T15:51:08.645Z,24.18
2024-04-12T15:53:35.453Z,23.62
2024-04-12T15:56:02.173Z,23.26
2024-04-12T15:58:29.748Z,23.62
2024-04-12T16:00:56.251Z,24.22
2024-04-12T16:03:22.859Z,25.00
2024-04-12T16:05:49.504Z,24.86
2024-04-12T16:08:16.175Z,25.22
2024-04-12T16:10:42.740Z,25.73
2024-04-12T16:13:09.258Z,26.35
2024-04-12T16:15:35.719Z,27.15
2024-04-12T16:18:02.547Z,27.78
2024-04-12T16:20:29.319Z,28.95
2024-04-12T16:22:56.985Z,30.11
2024-04-12T16:25:23.479Z,31.31
2024-04-12T16:27:54.110Z,32.62
2024-04-12T16:30:20.712Z,33.67
2024-04-12T16:32:47.361Z,34.60
2024-04-12T16:35:13.932Z,35.10
2024-04-12T16:37:40.594Z,35.87
2024-04-12T16:40:07.614Z,35.45
2024-04-12T16:42:34.690Z,36.54
2024-04-12T16:45:01.523Z,36.91
2024-04-12T16:47:28.105Z,37.20
2024-04-12T16:49:54.576Z,38.06
2024-04-12T16:52:21.016Z,39.03
2024-04-12T16:54:47.606Z,39.35
2024-04-12T16:57:14.221Z,39.84
2024-04-12T16:59:40.935Z,39.99
2024-04-12T17:02:07.432Z,41.46
2024-04-12T17:04:33.915Z,40.83
2024-04-12T17:07:00.689Z,43.06
2024-04-12T17:09:27.297Z,43.15
2024-04-12T17:11:53.861Z,43.31
2024-04-12T17:14:20.447Z,42.95
2024-04-12T17:16:47.117Z,42.83
2024-04-12T17:19:13.662Z,44.07
2024-04-12T17:21:42.907Z,44.13
2024-04-12T17:24:10.518Z,43.42
2024-04-12T17:26:36.952Z,45.05
2024-04-12T17:29:03.410Z,45.69
2024-04-12T17:31:30.336Z,45.56
2024-04-12T17:33:56.875Z,45.40
2024-04-12T17:36:23.440Z,47.27
2024-04-12T17:38:50.112Z,48.48
2024-04-12T17:41:16.821Z,48.99
2024-04-12T17:43:43.432Z,49.35
2024-04-12T17:46:10.260Z,49.58
2024-04-12T17:48:36.851Z,51.17
2024-04-12T17:51:04.195Z,52.45
2024-04-12T17:53:32.395Z,50.09
2024-04-12T17:55:59.238Z,52.39
2024-04-12T17:58:27.087Z,52.89
2024-04-12T18:01:01.147Z,53.21
2024-04-12T18:03:27.957Z,52.86
2024-04-12T18:05:54.536Z,52.58
2024-04-12T18:08:21.178Z,54.20
2024-04-12T18:10:47.674Z,54.76
2024-04-12T18:13:14.173Z,53.97
2024-04-12T18:15:40.712Z,54.53
2024-04-12T18:18:07.455Z,55.28
2024-04-12T18:20:34.047Z,54.52
2024-04-12T18:23:00.739Z,55.36
2024-04-12T18:25:27.490Z,56.36
2024-04-12T18:27:53.955Z,56.51
2024-04-12T18:30:20.610Z,55.86
2024-04-12T18:32:50.019Z,55.49
2024-04-12T18:35:16.619Z,55.47
2024-04-12T18:37:43.644Z,56.56
2024-04-12T18:40:10.298Z,56.17
2024-04-12T18:42:37.375Z,56.38
2024-04-12T18:45:04.291Z,55.65
2024-04-12T18:47:31.082Z,56.08
2024-04-12T18:49:57.900Z,55.60
2024-04-12T18:52:25.217Z,55.81
2024-04-12T18:54:51.897Z,55.74
2024-04-12T18:57:18.678Z,57.63
2024-04-12T18:59:45.175Z,57.06
2024-04-12T19:02:11.764Z,56.64
2024-04-12T19:04:38.323Z,57.08
2024-04-12T19:07:05.381Z,57.57
2024-04-12T19:09:32.240Z,57.11
2024-04-12T19:11:59.307Z,57.56
2024-04-12T19:14:26.004Z,57.33
2024-04-12T19:16:52.932Z,57.55
2024-04-12T19:19:19.489Z,57.98
2024-04-12T19:21:46.435Z,57.14
2024-04-12T19:24:13.169Z,58.97
2024-04-12T19:26:39.790Z,59.18
2024-04-12T19:29:06.647Z,59.80
2024-04-12T19:31:33.297Z,59.44
2024-04-12T19:34:00.054Z,59.14
2024-04-12T19:36:27.065Z,59.34
2024-04-12T19:38:54.518Z,59.02
2024-04-12T19:41:21.184Z,59.27
2024-04-12T19:43:50.840Z,59.26
2024-04-12T19:46:17.716Z,58.94
2024-04-12T19:48:44.447Z,58.88
2024-04-12T19:51:11.446Z,59.89
2024-04-12T19:53:38.183Z,59.82
2024-04-12T19:56:05.029Z,60.30
2024-04-12T19:58:31.939Z,60.02
2024-04-12T20:01:02.069Z,60.80
2024-04-12T20:03:28.951Z,60.24
2024-04-12T20:05:56.174Z,60.53
2024-04-12T20:08:23.028Z,61.25
2024-04-12T20:10:57.861Z,61.40
2024-04-12T20:13:26.071Z,62.48
2024-04-12T20:16:13.205Z,63.18
2024-04-12T20:18:40.443Z,62.04
2024-04-12T20:21:08.600Z,62.13
2024-04-12T20:23:35.388Z,62.70
2024-04-12T20:26:07.758Z,62.20
2024-04-12T20:28:34.252Z,62.79
2024-04-12T20:31:01.278Z,62.60
2024-04-12T20:33:27.945Z,62.99
2024-04-12T20:35:54.617Z,62.89
2024-04-12T20:38:21.218Z,63.55
2024-04-12T20:40:57.218Z,63.56
2024-04-12T20:43:23.849Z,63.88
2024-04-12T20:45:57.598Z,63.91
2024-04-12T20:48:24.155Z,64.07
2024-04-12T20:50:50.734Z,64.23
2024-04-12T20:53:17.287Z,64.02
2024-04-12T20:55:47.458Z,63.86
2024-04-12T20:58:14.135Z,64.43
2024-04-12T21:00:41.101Z,64.99
2024-04-12T21:03:07.673Z,65.09
2024-04-12T21:05:34.837Z,64.09
2024-04-12T21:08:04.852Z,64.28
2024-04-12T21:10:31.376Z,64.53
2024-04-12T21:12:57.992Z,65.08
2024-04-12T21:15:24.530Z,65.31
2024-04-12T21:17:51.101Z,65.29
2024-04-12T21:20:17.822Z,65.73
2024-04-12T21:22:44.483Z,66.22
2024-04-12T21:25:10.969Z,66.42
2024-04-12T21:27:37.749Z,66.55
2024-04-12T21:30:04.801Z,65.90
2024-04-12T21:32:31.351Z,66.40
2024-04-12T21:34:58.294Z,67.07
2024-04-12T21:37:24.902Z,67.68
2024-04-12T21:39:51.499Z,67.85
2024-04-12T21:42:18.236Z,67.66
2024-04-12T21:44:44.775Z,66.98
2024-04-12T21:47:11.963Z,66.93
2024-04-12T21:49:38.758Z,66.08
2024-04-12T21:52:05.399Z,67.89
2024-04-12T21:54:32.000Z,68.66
2024-04-12T21:56:58.556Z,68.99
2024-04-12T21:59:25.046Z,69.34
2024-04-12T22:01:51.619Z,69.08
2024-04-12T22:04:18.245Z,69.59
2024-04-12T22:06:44.913Z,69.52
2024-04-12T22:09:11.483Z,69.44
2024-04-12T22:11:38.362Z,69.76
2024-04-12T22:14:05.079Z,68.52
2024-04-12T22:16:31.535Z,69.21
2024-04-12T22:18:58.243Z,68.09
2024-04-12T22:21:25.043Z,68.73
2024-04-12T22:23:51.814Z,69.08
2024-04-12T22:26:20.431Z,69.87
2024-04-12T22:28:48.621Z,69.30
2024-04-12T22:31:21.330Z,69.48
2024-04-12T22:33:52.701Z,69.60
2024-04-12T22:36:20.569Z,69.94
2024-04-12T22:38:48.714Z,70.05
2024-04-12T22:41:15.834Z,70.40
2024-04-12T22:43:42.455Z,70.45
2024-04-12T22:46:09.298Z,70.52
2024-04-12T22:48:36.189Z,69.81
2024-04-12T22:51:03.643Z,70.05
2024-04-12T22:53:30.122Z,70.00
2024-04-12T22:55:56.811Z,69.55
2024-04-12T22:58:23.268Z,69.21
2024-04-12T23:00:49.962Z,69.49
2024-04-12T23:03:16.658Z,69.34
2024-04-12T23:05:44.334Z,70.03
2024-04-12T23:08:10.898Z,69.57
2024-04-12T23:10:37.365Z,69.47
2024-04-12T23:13:04.897Z,69.87
2024-04-12T23:15:31.439Z,70.89
2024-04-12T23:17:58.215Z,70.76
2024-04-12T23:20:25.315Z,71.47
2024-04-12T23:22:51.850Z,71.03
2024-04-12T23:25:18.359Z,70.83
2024-04-12T23:27:44.846Z,71.40
2024-04-12T23:30:12.391Z,70.82
2024-04-12T23:32:38.979Z,71.55
2024-04-12T23:35:05.961Z,70.64
2024-04-12T23:37:32.800Z,71.71
2024-04-12T23:39:59.667Z,70.80
2024-04-12T23:42:26.321Z,71.92
2024-04-12T23:44:52.793Z,72.25
2024-04-12T23:47:19.454Z,72.25
2024-04-12T23:49:46.625Z,72.11
2024-04-12T23:52:13.570Z,71.49
2024-04-12T23:54:40.039Z,72.26
2024-04-12T23:57:06.715Z,72.14
2024-04-12T23:59:33.339Z,71.92
